Avant, Oklahoma
Current Conditions -  °F | °C
As of 5:53 AM on Monday 26 Jan 2015 (Local Time) from KBVO Reporting Station
Clear Clear  
Wind Chill: 22°   Ceiling: Unl
Heat Index: 28°   Visibility: 10mi
Dew Point: 26°   Wind: 6mph
Humidity: 92%   Direction: 260°W
Pressure: 30.15"   Gusts: NA
Location:  36.49°N, 96.06°W
Report Text: KBVO 261153Z AUTO 26005KT 10SM CLR M02/M03 A3015 RMK AO2 SLP211 I1000 I6000 T10221033 11017 21061 55009
Loading
Personal Weather Stations






























Interactive Weather Map New forecast layout! Learn more

10-Day Weather Forecast

Advertisements
Track Severe Weather on mobile